N419JD KAKR-KDET
Flight info
| Callsign | N419JD |
|---|---|
| Flight time | 1h 21m |
| Altitude | 14000 |
| Route | VFR |
| Aircraft | C182/L-SDGRY/S |
Departure
| Time | 2026-04-19 12:03 |
|---|---|
| Airport | Akron Fulton International Airport (KAKR) |
Arrival
| Time | 2026-04-19 13:24 |
|---|---|
| Airport | Coleman A. Young Municipal Airport (KDET) |
| Time | Latitude | Longitude | Altitude | Speed | Heading |
|---|---|---|---|---|---|
| 2026-04-19 11:57 | 41.04101 | -81.46286 | 1054 ft | 0 kts | 176° |
| 2026-04-19 12:01 | 41.04093 | -81.46283 | 1055 ft | 3 kts | 152° |
| 2026-04-19 12:01 | 41.04064 | -81.46257 | 1057 ft | 7 kts | 142° |
| 2026-04-19 12:01 | 41.04010 | -81.46212 | 1059 ft | 10 kts | 157° |
| 2026-04-19 12:02 | 41.03946 | -81.46274 | 1057 ft | 30 kts | 244° |
| 2026-04-19 12:02 | 41.03770 | -81.46680 | 1160 ft | 62 kts | 246° |
| 2026-04-19 12:02 | 41.03416 | -81.47097 | 1350 ft | 82 kts | 218° |
| 2026-04-19 12:02 | 41.03372 | -81.47727 | 1487 ft | 91 kts | 313° |
| 2026-04-19 12:03 | 41.03979 | -81.48110 | 1700 ft | 95 kts | 318° |
| 2026-04-19 12:03 | 41.04368 | -81.48786 | 1938 ft | 93 kts | 295° |
| 2026-04-19 12:03 | 41.04683 | -81.49542 | 2176 ft | 95 kts | 294° |
| 2026-04-19 12:03 | 41.04983 | -81.50316 | 2390 ft | 94 kts | 293° |
| 2026-04-19 12:04 | 41.05275 | -81.51103 | 2523 ft | 100 kts | 294° |
| 2026-04-19 12:04 | 41.05589 | -81.51977 | 2526 ft | 109 kts | 294° |
| 2026-04-19 12:04 | 41.05918 | -81.52902 | 2526 ft | 112 kts | 294° |
| 2026-04-19 12:04 | 41.06246 | -81.53836 | 2531 ft | 114 kts | 294° |
| 2026-04-19 12:05 | 41.06582 | -81.54795 | 2522 ft | 114 kts | 293° |
| 2026-04-19 12:05 | 41.06915 | -81.55747 | 2531 ft | 114 kts | 293° |
| 2026-04-19 12:05 | 41.07246 | -81.56694 | 2524 ft | 111 kts | 293° |
| 2026-04-19 12:05 | 41.07566 | -81.57614 | 2518 ft | 108 kts | 293° |
| 2026-04-19 12:06 | 41.07879 | -81.58509 | 2516 ft | 106 kts | 293° |
| 2026-04-19 12:06 | 41.08187 | -81.59393 | 2511 ft | 105 kts | 293° |
| 2026-04-19 12:06 | 41.08493 | -81.60272 | 2510 ft | 105 kts | 293° |
| 2026-04-19 12:06 | 41.08795 | -81.61141 | 2507 ft | 105 kts | 293° |
| 2026-04-19 12:07 | 41.09103 | -81.62023 | 2509 ft | 104 kts | 292° |
| 2026-04-19 12:07 | 41.09402 | -81.62883 | 2510 ft | 104 kts | 292° |
| 2026-04-19 12:07 | 41.09706 | -81.63757 | 2514 ft | 105 kts | 292° |
| 2026-04-19 12:07 | 41.10011 | -81.64634 | 2513 ft | 105 kts | 292° |
| 2026-04-19 12:08 | 41.10316 | -81.65513 | 2511 ft | 105 kts | 292° |
| 2026-04-19 12:08 | 41.10622 | -81.66391 | 2507 ft | 105 kts | 292° |
| 2026-04-19 12:08 | 41.10928 | -81.67271 | 2505 ft | 105 kts | 292° |
| 2026-04-19 12:08 | 41.11230 | -81.68142 | 2499 ft | 104 kts | 293° |
| 2026-04-19 12:09 | 41.11533 | -81.69015 | 2503 ft | 104 kts | 292° |
| 2026-04-19 12:09 | 41.11837 | -81.69890 | 2502 ft | 104 kts | 293° |
| 2026-04-19 12:09 | 41.12141 | -81.70766 | 2503 ft | 105 kts | 293° |
| 2026-04-19 12:09 | 41.12445 | -81.71642 | 2508 ft | 104 kts | 293° |
| 2026-04-19 12:10 | 41.12747 | -81.72516 | 2500 ft | 104 kts | 293° |
| 2026-04-19 12:10 | 41.13047 | -81.73378 | 2503 ft | 104 kts | 293° |
| 2026-04-19 12:10 | 41.13352 | -81.74257 | 2504 ft | 105 kts | 293° |
| 2026-04-19 12:10 | 41.13655 | -81.75132 | 2503 ft | 104 kts | 293° |
| 2026-04-19 12:11 | 41.13955 | -81.75999 | 2496 ft | 103 kts | 293° |
| 2026-04-19 12:11 | 41.14254 | -81.76861 | 2495 ft | 103 kts | 293° |
| 2026-04-19 12:11 | 41.14553 | -81.77727 | 2499 ft | 103 kts | 293° |
| 2026-04-19 12:11 | 41.14853 | -81.78593 | 2498 ft | 103 kts | 293° |
| 2026-04-19 12:12 | 41.15153 | -81.79460 | 2496 ft | 104 kts | 292° |
| 2026-04-19 12:12 | 41.15456 | -81.80338 | 2502 ft | 104 kts | 293° |
| 2026-04-19 12:12 | 41.15761 | -81.81218 | 2504 ft | 105 kts | 293° |
| 2026-04-19 12:12 | 41.16067 | -81.82102 | 2498 ft | 104 kts | 293° |
| 2026-04-19 12:13 | 41.16367 | -81.82970 | 2498 ft | 105 kts | 293° |
| 2026-04-19 12:13 | 41.16671 | -81.83851 | 2500 ft | 105 kts | 293° |
| 2026-04-19 12:13 | 41.16976 | -81.84736 | 2497 ft | 105 kts | 293° |
| 2026-04-19 12:13 | 41.17281 | -81.85618 | 2500 ft | 105 kts | 293° |
| 2026-04-19 12:14 | 41.17585 | -81.86498 | 2499 ft | 105 kts | 293° |
| 2026-04-19 12:14 | 41.17889 | -81.87380 | 2499 ft | 105 kts | 293° |
| 2026-04-19 12:14 | 41.18193 | -81.88260 | 2500 ft | 105 kts | 293° |
| 2026-04-19 12:14 | 41.18497 | -81.89144 | 2500 ft | 105 kts | 293° |
| 2026-04-19 12:15 | 41.18802 | -81.90027 | 2497 ft | 105 kts | 293° |
| 2026-04-19 12:15 | 41.19107 | -81.90914 | 2500 ft | 106 kts | 293° |
| 2026-04-19 12:15 | 41.19410 | -81.91793 | 2496 ft | 106 kts | 293° |
| 2026-04-19 12:15 | 41.19717 | -81.92682 | 2500 ft | 106 kts | 293° |
| 2026-04-19 12:16 | 41.20024 | -81.93576 | 2500 ft | 106 kts | 293° |
| 2026-04-19 12:16 | 41.20332 | -81.94472 | 2503 ft | 106 kts | 293° |
| 2026-04-19 12:16 | 41.20640 | -81.95367 | 2499 ft | 106 kts | 293° |
| 2026-04-19 12:16 | 41.20948 | -81.96262 | 2520 ft | 107 kts | 293° |
| 2026-04-19 12:17 | 41.21256 | -81.97157 | 2523 ft | 106 kts | 293° |
| 2026-04-19 12:17 | 41.21563 | -81.98051 | 2521 ft | 106 kts | 293° |
| 2026-04-19 12:17 | 41.21870 | -81.98944 | 2521 ft | 106 kts | 293° |
| 2026-04-19 12:17 | 41.22178 | -81.99841 | 2526 ft | 107 kts | 293° |
| 2026-04-19 12:18 | 41.22487 | -82.00742 | 2528 ft | 107 kts | 292° |
| 2026-04-19 12:18 | 41.22792 | -82.01630 | 2530 ft | 107 kts | 292° |
| 2026-04-19 12:18 | 41.23102 | -82.02533 | 2529 ft | 107 kts | 293° |
| 2026-04-19 12:18 | 41.23413 | -82.03441 | 2527 ft | 107 kts | 293° |
| 2026-04-19 12:19 | 41.23723 | -82.04345 | 2533 ft | 107 kts | 292° |
| 2026-04-19 12:19 | 41.24033 | -82.05249 | 2534 ft | 108 kts | 292° |
| 2026-04-19 12:19 | 41.24344 | -82.06154 | 2535 ft | 108 kts | 292° |
| 2026-04-19 12:19 | 41.24653 | -82.07058 | 2536 ft | 107 kts | 292° |
| 2026-04-19 12:20 | 41.24960 | -82.07953 | 2538 ft | 107 kts | 292° |
| 2026-04-19 12:20 | 41.25269 | -82.08855 | 2537 ft | 107 kts | 292° |
| 2026-04-19 12:20 | 41.25577 | -82.09755 | 2538 ft | 107 kts | 292° |
| 2026-04-19 12:20 | 41.25885 | -82.10656 | 2539 ft | 107 kts | 292° |
| 2026-04-19 12:21 | 41.26193 | -82.11556 | 2536 ft | 107 kts | 292° |
| 2026-04-19 12:21 | 41.26501 | -82.12458 | 2540 ft | 107 kts | 292° |
| 2026-04-19 12:21 | 41.26807 | -82.13353 | 2538 ft | 106 kts | 292° |
| 2026-04-19 12:21 | 41.27111 | -82.14242 | 2535 ft | 105 kts | 292° |
| 2026-04-19 12:22 | 41.27413 | -82.15125 | 2535 ft | 105 kts | 292° |
| 2026-04-19 12:22 | 41.27710 | -82.15996 | 2536 ft | 105 kts | 292° |
| 2026-04-19 12:22 | 41.28012 | -82.16879 | 2535 ft | 105 kts | 292° |
| 2026-04-19 12:22 | 41.28316 | -82.17770 | 2510 ft | 106 kts | 292° |
| 2026-04-19 12:23 | 41.28618 | -82.18657 | 2507 ft | 105 kts | 292° |
| 2026-04-19 12:23 | 41.28921 | -82.19544 | 2506 ft | 105 kts | 292° |
| 2026-04-19 12:23 | 41.29222 | -82.20428 | 2509 ft | 105 kts | 291° |
| 2026-04-19 12:23 | 41.29524 | -82.21313 | 2506 ft | 105 kts | 291° |
| 2026-04-19 12:24 | 41.29825 | -82.22197 | 2506 ft | 105 kts | 292° |
| 2026-04-19 12:24 | 41.30128 | -82.23087 | 2505 ft | 105 kts | 291° |
| 2026-04-19 12:24 | 41.30430 | -82.23973 | 2507 ft | 105 kts | 291° |
| 2026-04-19 12:24 | 41.30733 | -82.24863 | 2505 ft | 106 kts | 291° |
| 2026-04-19 12:25 | 41.31036 | -82.25752 | 2508 ft | 106 kts | 291° |
| 2026-04-19 12:25 | 41.31339 | -82.26644 | 2501 ft | 105 kts | 292° |
| 2026-04-19 12:25 | 41.31636 | -82.27518 | 2506 ft | 105 kts | 292° |
| 2026-04-19 12:25 | 41.31937 | -82.28402 | 2502 ft | 105 kts | 292° |
| 2026-04-19 12:26 | 41.32237 | -82.29286 | 2506 ft | 105 kts | 292° |
| 2026-04-19 12:26 | 41.32538 | -82.30172 | 2507 ft | 105 kts | 292° |
| 2026-04-19 12:26 | 41.32839 | -82.31058 | 2505 ft | 105 kts | 292° |
| 2026-04-19 12:26 | 41.33140 | -82.31943 | 2505 ft | 105 kts | 292° |
| 2026-04-19 12:27 | 41.33441 | -82.32831 | 2506 ft | 105 kts | 292° |
| 2026-04-19 12:27 | 41.33743 | -82.33722 | 2502 ft | 106 kts | 292° |
| 2026-04-19 12:27 | 41.34044 | -82.34609 | 2502 ft | 105 kts | 292° |
| 2026-04-19 12:27 | 41.34345 | -82.35496 | 2496 ft | 104 kts | 292° |
| 2026-04-19 12:28 | 41.34943 | -82.37260 | 2498 ft | 105 kts | 292° |
| 2026-04-19 12:28 | 41.35244 | -82.38148 | 2498 ft | 106 kts | 292° |
| 2026-04-19 12:28 | 41.35546 | -82.39039 | 2497 ft | 105 kts | 292° |
| 2026-04-19 12:29 | 41.35848 | -82.39934 | 2492 ft | 109 kts | 292° |
| 2026-04-19 12:29 | 41.36156 | -82.40842 | 2489 ft | 107 kts | 292° |
| 2026-04-19 12:29 | 41.36459 | -82.41737 | 2491 ft | 106 kts | 292° |
| 2026-04-19 12:29 | 41.36763 | -82.42637 | 2491 ft | 109 kts | 292° |
| 2026-04-19 12:30 | 41.37071 | -82.43546 | 2493 ft | 107 kts | 292° |
| 2026-04-19 12:30 | 41.37377 | -82.44453 | 2502 ft | 110 kts | 294° |
| 2026-04-19 12:30 | 41.37687 | -82.45370 | 2506 ft | 111 kts | 292° |
| 2026-04-19 12:30 | 41.38001 | -82.46299 | 2491 ft | 108 kts | 292° |
| 2026-04-19 12:31 | 41.38313 | -82.47222 | 2493 ft | 109 kts | 292° |
| 2026-04-19 12:31 | 41.38621 | -82.48135 | 2492 ft | 107 kts | 292° |
| 2026-04-19 12:31 | 41.38924 | -82.49033 | 2497 ft | 106 kts | 292° |
| 2026-04-19 12:31 | 41.39225 | -82.49925 | 2496 ft | 106 kts | 292° |
| 2026-04-19 12:32 | 41.39526 | -82.50818 | 2492 ft | 106 kts | 292° |
| 2026-04-19 12:32 | 41.39829 | -82.51715 | 2492 ft | 106 kts | 292° |
| 2026-04-19 12:32 | 41.40131 | -82.52611 | 2492 ft | 106 kts | 292° |
| 2026-04-19 12:32 | 41.40430 | -82.53499 | 2495 ft | 106 kts | 292° |
| 2026-04-19 12:33 | 41.40733 | -82.54400 | 2493 ft | 107 kts | 292° |
| 2026-04-19 12:33 | 41.41038 | -82.55305 | 2493 ft | 107 kts | 292° |
| 2026-04-19 12:33 | 41.41342 | -82.56209 | 2495 ft | 107 kts | 292° |
| 2026-04-19 12:33 | 41.41649 | -82.57121 | 2497 ft | 108 kts | 292° |
| 2026-04-19 12:34 | 41.41956 | -82.58033 | 2499 ft | 108 kts | 291° |
| 2026-04-19 12:34 | 41.42262 | -82.58943 | 2496 ft | 108 kts | 292° |
| 2026-04-19 12:34 | 41.42569 | -82.59855 | 2498 ft | 108 kts | 292° |
| 2026-04-19 12:34 | 41.42875 | -82.60767 | 2499 ft | 108 kts | 292° |
| 2026-04-19 12:35 | 41.43181 | -82.61677 | 2497 ft | 108 kts | 292° |
| 2026-04-19 12:35 | 41.43489 | -82.62594 | 2501 ft | 110 kts | 292° |
| 2026-04-19 12:35 | 41.43799 | -82.63518 | 2498 ft | 108 kts | 292° |
| 2026-04-19 12:35 | 41.44101 | -82.64419 | 2502 ft | 107 kts | 292° |
| 2026-04-19 12:36 | 41.44406 | -82.65328 | 2499 ft | 107 kts | 292° |
| 2026-04-19 12:36 | 41.44710 | -82.66235 | 2500 ft | 107 kts | 292° |
| 2026-04-19 12:36 | 41.45014 | -82.67145 | 2504 ft | 108 kts | 291° |
| 2026-04-19 12:36 | 41.45329 | -82.68083 | 2509 ft | 112 kts | 292° |
| 2026-04-19 12:37 | 41.45647 | -82.69026 | 2505 ft | 111 kts | 292° |
| 2026-04-19 12:37 | 41.45959 | -82.69957 | 2513 ft | 109 kts | 292° |
| 2026-04-19 12:37 | 41.46275 | -82.70906 | 2504 ft | 113 kts | 292° |
| 2026-04-19 12:37 | 41.46588 | -82.71838 | 2504 ft | 110 kts | 291° |
| 2026-04-19 12:38 | 41.46901 | -82.72774 | 2498 ft | 109 kts | 291° |
| 2026-04-19 12:38 | 41.47204 | -82.73681 | 2499 ft | 108 kts | 291° |
| 2026-04-19 12:38 | 41.47509 | -82.74594 | 2499 ft | 108 kts | 291° |
| 2026-04-19 12:38 | 41.47814 | -82.75505 | 2497 ft | 107 kts | 291° |
| 2026-04-19 12:39 | 41.48119 | -82.76417 | 2498 ft | 107 kts | 291° |
| 2026-04-19 12:39 | 41.48423 | -82.77327 | 2500 ft | 107 kts | 291° |
| 2026-04-19 12:39 | 41.48727 | -82.78238 | 2498 ft | 107 kts | 291° |
| 2026-04-19 12:39 | 41.49030 | -82.79148 | 2497 ft | 107 kts | 292° |
| 2026-04-19 12:40 | 41.49333 | -82.80055 | 2495 ft | 107 kts | 292° |
| 2026-04-19 12:40 | 41.49637 | -82.80965 | 2499 ft | 107 kts | 292° |
| 2026-04-19 12:40 | 41.49939 | -82.81872 | 2497 ft | 107 kts | 292° |
| 2026-04-19 12:40 | 41.50242 | -82.82782 | 2510 ft | 109 kts | 291° |
| 2026-04-19 12:41 | 41.50556 | -82.83722 | 2503 ft | 112 kts | 292° |
| 2026-04-19 12:41 | 41.50865 | -82.84651 | 2511 ft | 111 kts | 291° |
| 2026-04-19 12:41 | 41.51180 | -82.85596 | 2509 ft | 112 kts | 292° |
| 2026-04-19 12:41 | 41.51500 | -82.86558 | 2499 ft | 114 kts | 292° |
| 2026-04-19 12:42 | 41.51965 | -82.87420 | 2486 ft | 118 kts | 311° |
| 2026-04-19 12:42 | 41.52545 | -82.88160 | 2498 ft | 113 kts | 310° |
| 2026-04-19 12:42 | 41.52915 | -82.88647 | 2495 ft | 112 kts | 310° |
| 2026-04-19 12:42 | 41.53467 | -82.89376 | 2500 ft | 111 kts | 310° |
| 2026-04-19 12:43 | 41.54016 | -82.90100 | 2500 ft | 111 kts | 310° |
| 2026-04-19 12:43 | 41.54564 | -82.90825 | 2500 ft | 111 kts | 310° |
| 2026-04-19 12:43 | 41.54835 | -82.91731 | 2498 ft | 107 kts | 273° |
| 2026-04-19 12:43 | 41.54860 | -82.92722 | 2500 ft | 107 kts | 274° |
| 2026-04-19 12:44 | 41.54894 | -82.93720 | 2500 ft | 108 kts | 273° |
| 2026-04-19 12:44 | 41.54927 | -82.94719 | 2499 ft | 108 kts | 273° |
| 2026-04-19 12:44 | 41.54959 | -82.95715 | 2504 ft | 107 kts | 273° |
| 2026-04-19 12:44 | 41.54990 | -82.96711 | 2502 ft | 107 kts | 273° |
| 2026-04-19 12:45 | 41.55021 | -82.97693 | 2500 ft | 107 kts | 273° |
| 2026-04-19 12:45 | 41.55053 | -82.98691 | 2501 ft | 107 kts | 273° |
| 2026-04-19 12:45 | 41.55084 | -82.99687 | 2498 ft | 107 kts | 274° |
| 2026-04-19 12:45 | 41.55115 | -83.00682 | 2501 ft | 107 kts | 274° |
| 2026-04-19 12:46 | 41.55146 | -83.01681 | 2502 ft | 108 kts | 274° |
| 2026-04-19 12:46 | 41.55177 | -83.02684 | 2500 ft | 109 kts | 274° |
| 2026-04-19 12:46 | 41.55208 | -83.03692 | 2501 ft | 109 kts | 273° |
| 2026-04-19 12:46 | 41.55239 | -83.04696 | 2500 ft | 108 kts | 273° |
| 2026-04-19 12:47 | 41.55269 | -83.05700 | 2515 ft | 109 kts | 273° |
| 2026-04-19 12:47 | 41.55301 | -83.06719 | 2499 ft | 109 kts | 273° |
| 2026-04-19 12:47 | 41.55331 | -83.07734 | 2502 ft | 111 kts | 273° |
| 2026-04-19 12:47 | 41.55362 | -83.08767 | 2514 ft | 113 kts | 272° |
| 2026-04-19 12:48 | 41.55395 | -83.09819 | 2505 ft | 112 kts | 274° |
| 2026-04-19 12:48 | 41.55426 | -83.10833 | 2516 ft | 110 kts | 274° |
| 2026-04-19 12:48 | 41.55458 | -83.11860 | 2510 ft | 109 kts | 272° |
| 2026-04-19 12:48 | 41.55484 | -83.12897 | 2503 ft | 113 kts | 274° |
| 2026-04-19 12:49 | 41.55518 | -83.13930 | 2518 ft | 111 kts | 272° |
| 2026-04-19 12:49 | 41.55551 | -83.14976 | 2504 ft | 112 kts | 273° |
| 2026-04-19 12:49 | 41.55581 | -83.15999 | 2516 ft | 110 kts | 273° |
| 2026-04-19 12:49 | 41.55613 | -83.17051 | 2506 ft | 114 kts | 273° |
| 2026-04-19 12:50 | 41.55643 | -83.18096 | 2520 ft | 113 kts | 273° |
| 2026-04-19 12:50 | 41.55673 | -83.19140 | 2522 ft | 112 kts | 273° |
| 2026-04-19 12:50 | 41.55704 | -83.20177 | 2511 ft | 110 kts | 273° |
| 2026-04-19 12:50 | 41.55733 | -83.21178 | 2519 ft | 109 kts | 272° |
| 2026-04-19 12:51 | 41.55763 | -83.22189 | 2516 ft | 108 kts | 273° |
| 2026-04-19 12:51 | 41.55795 | -83.23196 | 2515 ft | 109 kts | 273° |
| 2026-04-19 12:51 | 41.55822 | -83.24208 | 2513 ft | 110 kts | 274° |
| 2026-04-19 12:51 | 41.55851 | -83.25235 | 2513 ft | 111 kts | 273° |
| 2026-04-19 12:52 | 41.55881 | -83.26255 | 2517 ft | 109 kts | 273° |
| 2026-04-19 12:52 | 41.55909 | -83.27252 | 2526 ft | 107 kts | 272° |
| 2026-04-19 12:52 | 41.55941 | -83.28266 | 2533 ft | 110 kts | 273° |
| 2026-04-19 12:52 | 41.55970 | -83.29318 | 2520 ft | 115 kts | 273° |
| 2026-04-19 12:53 | 41.55998 | -83.30365 | 2524 ft | 110 kts | 272° |
| 2026-04-19 12:53 | 41.56026 | -83.31380 | 2533 ft | 111 kts | 274° |
| 2026-04-19 12:53 | 41.56059 | -83.32438 | 2513 ft | 113 kts | 273° |
| 2026-04-19 12:53 | 41.56086 | -83.33468 | 2515 ft | 109 kts | 273° |
| 2026-04-19 12:54 | 41.56116 | -83.34472 | 2524 ft | 112 kts | 273° |
| 2026-04-19 12:54 | 41.56146 | -83.35522 | 2529 ft | 113 kts | 273° |
| 2026-04-19 12:54 | 41.56174 | -83.36573 | 2529 ft | 115 kts | 272° |
| 2026-04-19 12:54 | 41.56204 | -83.37628 | 2528 ft | 112 kts | 274° |
| 2026-04-19 12:55 | 41.56234 | -83.38681 | 2515 ft | 112 kts | 273° |
| 2026-04-19 12:55 | 41.56262 | -83.39727 | 2525 ft | 115 kts | 272° |
| 2026-04-19 12:55 | 41.56291 | -83.40776 | 2527 ft | 113 kts | 273° |
| 2026-04-19 12:55 | 41.56318 | -83.41835 | 2520 ft | 114 kts | 272° |
| 2026-04-19 12:56 | 41.56351 | -83.42877 | 2523 ft | 112 kts | 273° |
| 2026-04-19 12:56 | 41.56379 | -83.43906 | 2528 ft | 112 kts | 272° |
| 2026-04-19 12:56 | 41.56406 | -83.44957 | 2525 ft | 113 kts | 272° |
| 2026-04-19 12:56 | 41.56434 | -83.46009 | 2529 ft | 116 kts | 272° |
| 2026-04-19 12:57 | 41.56535 | -83.47072 | 2516 ft | 117 kts | 289° |
| 2026-04-19 12:57 | 41.57079 | -83.47873 | 2517 ft | 120 kts | 324° |
| 2026-04-19 12:57 | 41.57913 | -83.48058 | 2522 ft | 126 kts | 356° |
| 2026-04-19 12:57 | 41.58777 | -83.47935 | 2525 ft | 125 kts | 357° |
| 2026-04-19 12:58 | 41.59642 | -83.47827 | 2528 ft | 125 kts | 357° |
| 2026-04-19 12:58 | 41.60504 | -83.47718 | 2519 ft | 124 kts | 356° |
| 2026-04-19 12:58 | 41.61368 | -83.47608 | 2526 ft | 126 kts | 357° |
| 2026-04-19 12:58 | 41.62247 | -83.47496 | 2530 ft | 127 kts | 358° |
| 2026-04-19 12:59 | 41.63120 | -83.47386 | 2526 ft | 125 kts | 357° |
| 2026-04-19 12:59 | 41.63998 | -83.47276 | 2530 ft | 128 kts | 357° |
| 2026-04-19 12:59 | 41.64889 | -83.47165 | 2530 ft | 129 kts | 358° |
| 2026-04-19 12:59 | 41.65776 | -83.47051 | 2521 ft | 127 kts | 358° |
| 2026-04-19 13:00 | 41.66641 | -83.46940 | 2531 ft | 126 kts | 356° |
| 2026-04-19 13:00 | 41.67517 | -83.46831 | 2531 ft | 127 kts | 357° |
| 2026-04-19 13:00 | 41.68406 | -83.46720 | 2523 ft | 128 kts | 357° |
| 2026-04-19 13:00 | 41.69291 | -83.46605 | 2526 ft | 129 kts | 357° |
| 2026-04-19 13:01 | 41.70178 | -83.46493 | 2519 ft | 127 kts | 357° |
| 2026-04-19 13:01 | 41.71054 | -83.46382 | 2505 ft | 126 kts | 357° |
| 2026-04-19 13:01 | 41.71927 | -83.46272 | 2503 ft | 126 kts | 357° |
| 2026-04-19 13:01 | 41.72798 | -83.46161 | 2512 ft | 127 kts | 357° |
| 2026-04-19 13:02 | 41.73686 | -83.46051 | 2509 ft | 128 kts | 357° |
| 2026-04-19 13:02 | 41.74575 | -83.45938 | 2508 ft | 129 kts | 357° |
| 2026-04-19 13:02 | 41.75462 | -83.45823 | 2503 ft | 127 kts | 357° |
| 2026-04-19 13:02 | 41.76338 | -83.45712 | 2500 ft | 126 kts | 356° |
| 2026-04-19 13:03 | 41.77211 | -83.45602 | 2497 ft | 126 kts | 356° |
| 2026-04-19 13:03 | 41.78084 | -83.45492 | 2499 ft | 126 kts | 356° |
| 2026-04-19 13:03 | 41.78959 | -83.45380 | 2509 ft | 126 kts | 356° |
| 2026-04-19 13:03 | 41.79834 | -83.45196 | 2486 ft | 133 kts | 14° |
| 2026-04-19 13:04 | 41.80629 | -83.44503 | 2499 ft | 138 kts | 27° |
| 2026-04-19 13:04 | 41.81408 | -83.43812 | 2639 ft | 132 kts | 26° |
| 2026-04-19 13:04 | 41.82172 | -83.43130 | 2811 ft | 134 kts | 25° |
| 2026-04-19 13:04 | 41.82935 | -83.42444 | 2955 ft | 130 kts | 25° |
| 2026-04-19 13:05 | 41.83689 | -83.41772 | 3128 ft | 130 kts | 26° |
| 2026-04-19 13:05 | 41.84450 | -83.41101 | 3280 ft | 133 kts | 25° |
| 2026-04-19 13:05 | 41.85207 | -83.40422 | 3458 ft | 129 kts | 25° |
| 2026-04-19 13:05 | 41.85975 | -83.39748 | 3488 ft | 138 kts | 25° |
| 2026-04-19 13:06 | 41.86785 | -83.39046 | 3488 ft | 139 kts | 26° |
| 2026-04-19 13:06 | 41.87607 | -83.38335 | 3494 ft | 141 kts | 26° |
| 2026-04-19 13:06 | 41.88432 | -83.37622 | 3512 ft | 143 kts | 26° |
| 2026-04-19 13:06 | 41.89280 | -83.36897 | 3495 ft | 143 kts | 26° |
| 2026-04-19 13:07 | 41.90121 | -83.36176 | 3488 ft | 144 kts | 25° |
| 2026-04-19 13:07 | 41.90961 | -83.35462 | 3496 ft | 142 kts | 25° |
| 2026-04-19 13:07 | 41.91780 | -83.34751 | 3493 ft | 141 kts | 26° |
| 2026-04-19 13:07 | 41.92606 | -83.34045 | 3493 ft | 140 kts | 25° |
| 2026-04-19 13:08 | 41.93425 | -83.33335 | 3509 ft | 141 kts | 26° |
| 2026-04-19 13:08 | 41.94272 | -83.32609 | 3503 ft | 146 kts | 26° |
| 2026-04-19 13:08 | 41.95135 | -83.31877 | 3497 ft | 146 kts | 26° |
| 2026-04-19 13:08 | 41.95992 | -83.31146 | 3512 ft | 147 kts | 26° |
| 2026-04-19 13:09 | 41.96862 | -83.30413 | 3501 ft | 147 kts | 26° |
| 2026-04-19 13:09 | 41.97719 | -83.29687 | 3505 ft | 146 kts | 26° |
| 2026-04-19 13:09 | 41.98569 | -83.28956 | 3506 ft | 145 kts | 26° |
| 2026-04-19 13:09 | 41.99406 | -83.28235 | 3500 ft | 144 kts | 26° |
| 2026-04-19 13:10 | 42.00254 | -83.27498 | 3486 ft | 146 kts | 26° |
| 2026-04-19 13:10 | 42.01110 | -83.26759 | 3479 ft | 146 kts | 26° |
| 2026-04-19 13:10 | 42.01961 | -83.26022 | 3485 ft | 145 kts | 26° |
| 2026-04-19 13:10 | 42.02803 | -83.25297 | 3479 ft | 143 kts | 25° |
| 2026-04-19 13:11 | 42.03639 | -83.24576 | 3478 ft | 142 kts | 25° |
| 2026-04-19 13:11 | 42.04464 | -83.23864 | 3480 ft | 140 kts | 25° |
| 2026-04-19 13:11 | 42.05272 | -83.23159 | 3471 ft | 136 kts | 26° |
| 2026-04-19 13:11 | 42.06057 | -83.22469 | 3478 ft | 135 kts | 26° |
| 2026-04-19 13:12 | 42.06851 | -83.21776 | 3481 ft | 137 kts | 25° |
| 2026-04-19 13:12 | 42.07656 | -83.21073 | 3485 ft | 138 kts | 26° |
| 2026-04-19 13:12 | 42.08452 | -83.20377 | 3475 ft | 134 kts | 25° |
| 2026-04-19 13:12 | 42.09244 | -83.19687 | 3486 ft | 137 kts | 25° |
| 2026-04-19 13:13 | 42.10052 | -83.18980 | 3485 ft | 139 kts | 26° |
| 2026-04-19 13:13 | 42.10855 | -83.18286 | 3475 ft | 135 kts | 25° |
| 2026-04-19 13:13 | 42.11651 | -83.17658 | 3471 ft | 129 kts | 13° |
| 2026-04-19 13:13 | 42.12499 | -83.17337 | 3475 ft | 127 kts | 7° |
| 2026-04-19 13:14 | 42.13363 | -83.17015 | 3470 ft | 129 kts | 7° |
| 2026-04-19 13:14 | 42.14212 | -83.16689 | 3473 ft | 128 kts | 8° |
| 2026-04-19 13:14 | 42.15070 | -83.16362 | 3482 ft | 128 kts | 8° |
| 2026-04-19 13:14 | 42.15929 | -83.16040 | 3476 ft | 128 kts | 7° |
| 2026-04-19 13:15 | 42.16788 | -83.15714 | 3479 ft | 129 kts | 8° |
| 2026-04-19 13:15 | 42.17654 | -83.15448 | 3474 ft | 126 kts | 2° |
| 2026-04-19 13:15 | 42.18517 | -83.15228 | 3473 ft | 126 kts | 2° |
| 2026-04-19 13:15 | 42.19376 | -83.14997 | 3477 ft | 126 kts | 2° |
| 2026-04-19 13:16 | 42.20237 | -83.14764 | 3474 ft | 126 kts | 2° |
| 2026-04-19 13:16 | 42.21104 | -83.14538 | 3487 ft | 128 kts | 2° |
| 2026-04-19 13:16 | 42.21999 | -83.14310 | 3493 ft | 133 kts | 2° |
| 2026-04-19 13:16 | 42.22900 | -83.14081 | 3479 ft | 129 kts | 2° |
| 2026-04-19 13:17 | 42.23779 | -83.13852 | 3477 ft | 128 kts | 2° |
| 2026-04-19 13:17 | 42.24639 | -83.13535 | 3475 ft | 132 kts | 13° |
| 2026-04-19 13:17 | 42.25512 | -83.13086 | 3476 ft | 136 kts | 12° |
| 2026-04-19 13:17 | 42.26378 | -83.12579 | 3475 ft | 138 kts | 17° |
| 2026-04-19 13:18 | 42.27238 | -83.12023 | 3477 ft | 137 kts | 17° |
| 2026-04-19 13:18 | 42.28091 | -83.11468 | 3466 ft | 134 kts | 18° |
| 2026-04-19 13:18 | 42.28929 | -83.10924 | 3471 ft | 135 kts | 18° |
| 2026-04-19 13:18 | 42.29782 | -83.10377 | 3472 ft | 136 kts | 17° |
| 2026-04-19 13:19 | 42.30628 | -83.09824 | 3473 ft | 135 kts | 17° |
| 2026-04-19 13:19 | 42.31474 | -83.09274 | 3472 ft | 135 kts | 18° |
| 2026-04-19 13:19 | 42.32314 | -83.08730 | 3474 ft | 133 kts | 18° |
| 2026-04-19 13:19 | 42.33145 | -83.08172 | 3472 ft | 135 kts | 22° |
| 2026-04-19 13:20 | 42.33922 | -83.07443 | 3333 ft | 129 kts | 28° |
| 2026-04-19 13:20 | 42.34600 | -83.06796 | 3141 ft | 112 kts | 25° |
| 2026-04-19 13:20 | 42.35223 | -83.06222 | 2959 ft | 106 kts | 23° |
| 2026-04-19 13:20 | 42.35815 | -83.05681 | 2782 ft | 103 kts | 24° |
| 2026-04-19 13:21 | 42.36407 | -83.05143 | 2619 ft | 102 kts | 24° |
| 2026-04-19 13:21 | 42.36992 | -83.04610 | 2447 ft | 100 kts | 23° |
| 2026-04-19 13:21 | 42.37553 | -83.04099 | 2268 ft | 94 kts | 23° |
| 2026-04-19 13:21 | 42.38091 | -83.03593 | 2076 ft | 99 kts | 31° |
| 2026-04-19 13:22 | 42.38482 | -83.02786 | 1828 ft | 109 kts | 62° |
| 2026-04-19 13:22 | 42.38709 | -83.01892 | 1739 ft | 96 kts | 69° |
| 2026-04-19 13:22 | 42.38878 | -83.01041 | 1597 ft | 88 kts | 75° |
| 2026-04-19 13:22 | 42.39014 | -83.00218 | 1440 ft | 88 kts | 67° |
| 2026-04-19 13:23 | 42.39451 | -82.99670 | 1249 ft | 86 kts | 6° |
| 2026-04-19 13:23 | 42.40016 | -82.99834 | 928 ft | 75 kts | 324° |
| 2026-04-19 13:23 | 42.40362 | -83.00186 | 749 ft | 56 kts | 309° |
| 2026-04-19 13:23 | 42.40676 | -83.00485 | 641 ft | 51 kts | 312° |
| 2026-04-19 13:24 | 42.40897 | -83.00719 | 629 ft | 29 kts | 321° |
| 2026-04-19 13:24 | 42.41012 | -83.00828 | 630 ft | 17 kts | 342° |
| 2026-04-19 13:24 | 42.41115 | -83.00868 | 628 ft | 13 kts | 351° |
| 2026-04-19 13:24 | 42.41195 | -83.00865 | 630 ft | 11 kts | 45° |
| 2026-04-19 13:25 | 42.41175 | -83.00790 | 628 ft | 11 kts | 145° |
| 2026-04-19 13:25 | 42.41102 | -83.00718 | 633 ft | 15 kts | 138° |
| 2026-04-19 13:25 | 42.41012 | -83.00625 | 627 ft | 17 kts | 120° |
| 2026-04-19 13:25 | 42.40978 | -83.00540 | 630 ft | 0 kts | 126° |